Time;durP1;ratioP1;P1;durP2;ratioP2;P2;SDS_P1;SDS_P2;PMS_P1;PMS_P2;Temp;Humidity;BMP_temperature;BMP_pressure;BME280_temperature;BME280_humidity;BME280_pressure;Samples;Min_cycle;Max_cycle;Signal;HPM_P1;HPM_P2
2022/05/01 00:01:27;;;;;;;12.50;6.30;;;3.00;1.00;;;3.94;71.67;99962.41;5019814;28;129566;-67
2022/05/01 00:03:55;;;;;;;14.77;6.55;;;3.00;1.00;;;3.94;71.90;99965.09;5019831;28;120475;-66
2022/05/01 00:06:25;;;;;;;13.40;6.78;;;3.00;1.00;;;3.93;72.29;99963.47;5020222;28;119833;-64
2022/05/01 00:08:53;;;;;;;13.23;6.63;;;3.00;1.00;;;3.91;72.36;99970.97;5019459;28;129757;-67
2022/05/01 00:11:22;;;;;;;10.35;5.80;;;3.00;1.00;;;3.92;72.78;99969.09;5019313;28;129808;-66
2022/05/01 00:13:50;;;;;;;14.27;7.30;;;3.00;1.00;;;3.93;72.67;99963.47;5018765;28;122614;-63
2022/05/01 00:16:19;;;;;;;14.65;7.03;;;2.90;1.00;;;3.92;72.41;99972.56;5020412;27;122301;-65
2022/05/01 00:18:47;;;;;;;12.88;6.78;;;2.80;1.00;;;3.90;72.94;99965.88;5023098;27;129377;-66
2022/05/01 00:21:16;;;;;;;10.93;6.35;;;2.70;1.00;;;3.86;72.77;99962.84;5021142;28;128614;-65
2022/05/01 00:23:47;;;;;;;13.13;6.57;;;2.70;1.00;;;3.85;73.33;99960.44;5019644;28;120675;-65
2022/05/01 00:26:15;;;;;;;15.57;7.53;;;2.60;1.00;;;3.80;73.98;99961.19;5019798;28;119931;-64
2022/05/01 00:28:44;;;;;;;13.63;6.82;;;2.60;1.00;;;3.80;73.75;99955.81;5019290;28;129695;-66
2022/05/01 00:31:16;;;;;;;16.42;7.57;;;2.50;1.00;;;3.74;74.11;99954.97;4988144;28;128390;-66
2022/05/01 00:36:30;;;;;;;16.63;7.53;;;2.60;1.00;;;3.60;75.65;99959.94;5019336;28;119661;-63
2022/05/01 00:39:03;;;;;;;13.73;7.60;;;2.70;1.00;;;3.63;75.75;99957.81;5000052;28;130084;-66
2022/05/01 00:41:34;;;;;;;14.48;7.32;;;2.70;1.00;;;3.64;75.89;99954.09;5004181;28;129340;-66
2022/05/01 00:44:06;;;;;;;14.88;7.20;;;2.70;1.00;;;3.58;76.10;99962.09;5019331;28;120706;-64
2022/05/01 00:46:37;;;;;;;17.05;7.90;;;2.70;1.00;;;3.46;76.67;99952.56;5021095;28;120361;-64
2022/05/01 00:49:08;;;;;;;13.52;6.90;;;2.70;1.00;;;3.42;77.30;99952.25;5018289;27;129745;-67
2022/05/01 00:51:42;;;;;;;17.10;7.20;;;2.70;1.00;;;3.47;77.02;99949.63;5018087;28;129802;-66
2022/05/01 00:54:13;;;;;;;14.25;7.15;;;2.60;1.00;;;3.49;76.83;99957.41;5019338;28;119413;-65
2022/05/01 00:56:45;;;;;;;15.60;7.07;;;2.60;1.00;;;3.49;76.69;99954.72;5019297;28;120430;-66
2022/05/01 00:59:14;;;;;;;11.50;6.90;;;2.60;1.00;;;3.39;76.77;99950.06;4986658;28;129217;-68
2022/05/01 01:01:48;;;;;;;14.30;6.95;;;2.60;1.00;;;3.37;76.39;99949.53;5018419;28;129688;-66
2022/05/01 01:04:17;;;;;;;14.98;7.20;;;2.50;1.00;;;3.34;76.72;99955.41;5019712;28;121801;-67
2022/05/01 01:06:45;;;;;;;13.30;6.35;;;2.50;1.00;;;3.40;76.30;99949.03;5018805;28;122343;-66
2022/05/01 01:09:17;;;;;;;11.35;6.53;;;2.50;1.00;;;3.43;76.30;99948.53;5003534;28;128824;-66
2022/05/01 01:11:46;;;;;;;12.82;6.13;;;2.40;1.00;;;3.42;75.48;99941.53;4986442;28;129262;-64
2022/05/01 01:14:15;;;;;;;13.15;6.55;;;2.40;1.00;;;3.32;76.12;99944.09;5003934;28;118536;-66
2022/05/01 01:16:44;;;;;;;15.85;6.95;;;2.40;1.00;;;3.29;76.32;99944.59;5018766;28;119567;-67
2022/05/01 01:19:13;;;;;;;20.63;7.35;;;2.40;1.00;;;3.17;76.68;99942.06;5018300;28;129788;-69
2022/05/01 01:21:43;;;;;;;15.07;7.53;;;2.40;1.00;;;3.21;76.77;99944.00;5003875;28;128641;-65
2022/05/01 01:24:11;;;;;;;11.85;6.50;;;2.40;1.00;;;3.30;76.70;99938.19;5020115;28;119364;-64
2022/05/01 01:26:41;;;;;;;14.85;6.88;;;2.30;1.00;;;3.35;76.36;99948.94;5018601;28;119349;-64
2022/05/01 01:31:55;;;;;;;20.58;7.38;;;2.30;1.00;;;3.31;76.72;99945.16;5003001;28;130722;-65
2022/05/01 01:34:31;;;;;;;15.20;6.45;;;2.30;1.00;;;3.39;76.82;99942.03;5018003;28;119676;-65
2022/05/01 01:37:01;;;;;;;18.60;7.33;;;2.30;1.00;;;3.42;76.89;99938.84;5000471;28;119549;-66
2022/05/01 01:39:30;;;;;;;15.13;7.20;;;2.40;1.00;;;3.40;77.33;99938.28;5018058;28;130855;-65
2022/05/01 01:42:01;;;;;;;11.80;6.38;;;2.40;1.00;;;3.22;77.92;99948.28;5018068;28;129810;-67
2022/05/01 01:44:29;;;;;;;13.63;6.75;;;2.40;1.00;;;3.29;77.25;99934.69;5018499;28;120579;-65
2022/05/01 01:46:58;;;;;;;16.58;7.47;;;2.40;1.00;;;3.35;76.59;99940.91;5021347;28;120752;-66
2022/05/01 01:49:27;;;;;;;20.85;7.78;;;2.40;1.00;;;3.33;76.89;99943.03;5017824;28;130728;-66
2022/05/01 01:51:56;;;;;;;22.35;6.72;;;2.30;1.00;;;3.05;78.54;99934.16;5017723;28;129618;-67
2022/05/01 01:54:26;;;;;;;24.63;7.47;;;2.30;1.00;;;3.12;78.14;99942.03;5016671;28;122125;-65
2022/05/01 01:56:54;;;;;;;23.13;7.10;;;2.30;1.00;;;3.15;78.49;99942.31;5018047;28;122277;-64
2022/05/01 01:59:23;;;;;;;14.20;6.93;;;2.20;1.00;;;3.06;79.11;99938.47;5003037;28;129044;-66
2022/05/01 02:01:51;;;;;;;17.52;7.35;;;2.30;1.00;;;3.04;79.50;99940.59;5002285;28;129146;-65
2022/05/01 02:04:20;;;;;;;13.65;6.82;;;2.20;1.00;;;3.05;79.48;99942.19;5017938;28;119844;-66
2022/05/01 02:06:48;;;;;;;14.32;7.05;;;2.20;1.00;;;3.10;79.42;99946.81;5000011;28;120140;-65
2022/05/01 02:09:18;;;;;;;15.27;7.90;;;2.20;1.00;;;3.14;79.67;99946.06;4999407;28;129771;-64
2022/05/01 02:11:48;;;;;;;15.73;7.07;;;2.20;1.00;;;3.16;80.17;99940.44;4999754;28;129614;-64
2022/05/01 02:14:16;;;;;;;14.35;7.22;;;2.20;1.00;;;3.22;79.45;99942.13;5002859;28;120742;-65
2022/05/01 02:16:45;;;;;;;13.07;7.72;;;2.10;1.00;;;3.24;79.42;99948.84;5017624;28;119516;-64
2022/05/01 02:19:13;;;;;;;15.82;7.43;;;2.20;1.00;;;3.24;79.81;99948.03;5016672;28;130605;-65
2022/05/01 02:21:42;;;;;;;14.07;7.90;;;2.20;1.00;;;3.21;80.04;99952.03;5017510;28;129905;-65
2022/05/01 02:24:12;;;;;;;14.23;7.40;;;2.20;1.00;;;3.19;79.83;99947.97;5017699;28;120129;-66
2022/05/01 02:26:41;;;;;;;15.07;7.68;;;2.20;1.00;;;3.20;80.00;99950.41;5017748;28;120134;-65
2022/05/01 02:29:12;;;;;;;10.85;6.78;;;2.20;1.00;;;3.19;79.70;99953.34;5017252;28;129980;-65
2022/05/01 02:31:42;;;;;;;13.20;6.60;;;2.20;1.00;;;3.16;79.15;99959.22;5019059;28;128296;-64
2022/05/01 02:34:12;;;;;;;13.18;5.68;;;2.20;1.00;;;3.19;79.28;99948.78;5019570;28;119254;-65
2022/05/01 02:36:41;;;;;;;12.15;5.88;;;2.20;1.00;;;3.19;79.23;99953.34;5018074;28;119609;-65
2022/05/01 02:39:10;;;;;;;13.25;5.70;;;2.20;1.00;;;3.28;78.32;99949.16;5017086;28;130437;-69
2022/05/01 02:41:39;;;;;;;11.13;5.55;;;2.20;1.00;;;3.30;77.53;99948.91;5017537;28;129223;-65
2022/05/01 02:44:08;;;;;;;13.05;6.55;;;2.20;1.00;;;3.35;77.65;99957.00;5001320;28;121296;-67
2022/05/01 02:46:39;;;;;;;14.15;7.43;;;2.20;1.00;;;3.40;77.23;99949.03;5033044;27;122417;-65
2022/05/01 02:49:07;;;;;;;13.38;6.97;;;2.20;1.00;;;3.45;77.31;99950.94;5037136;27;130334;-66
2022/05/01 02:51:36;;;;;;;11.95;6.43;;;2.20;1.00;;;3.46;78.37;99961.44;5037170;27;130154;-70
2022/05/01 02:54:05;;;;;;;12.05;6.38;;;2.30;1.00;;;3.52;78.33;99952.38;5037606;27;119820;-66
2022/05/01 02:56:34;;;;;;;11.43;6.07;;;2.30;1.00;;;3.59;78.08;99947.59;5037407;27;119051;-66
2022/05/01 02:59:03;;;;;;;9.25;5.85;;;2.30;1.00;;;3.66;77.92;99954.63;5037200;27;129885;-67
2022/05/01 03:01:32;;;;;;;16.02;8.43;;;2.30;1.00;;;3.71;78.41;99947.44;5027593;27;129551;-66
2022/05/01 03:04:02;;;;;;;14.02;7.65;;;2.40;1.00;;;3.72;78.98;99961.66;5017286;28;120242;-66
2022/05/01 03:06:32;;;;;;;10.13;5.93;;;2.40;1.00;;;3.69;79.70;99956.81;5017248;28;119525;-67
2022/05/01 03:09:01;;;;;;;9.43;5.50;;;2.50;1.00;;;3.71;79.45;99968.91;5000774;28;129766;-66
2022/05/01 03:11:32;;;;;;;11.25;5.55;;;2.50;1.00;;;3.70;78.42;99971.84;5001847;28;129692;-66
2022/05/01 03:14:00;;;;;;;14.25;5.72;;;2.60;1.00;;;3.76;77.60;99968.94;5019204;28;120532;-66
2022/05/01 03:16:28;;;;;;;10.82;5.55;;;2.60;1.00;;;3.87;76.77;99971.75;5020673;28;120439;-67
2022/05/01 03:24:29;;;;;;;11.60;5.32;;;2.90;1.00;;;4.16;74.85;99977.63;5020363;28;119821;-67
2022/05/01 03:26:58;;;;;;;12.48;5.95;;;2.90;1.00;;;4.25;74.85;99965.31;5004551;28;119182;-66
2022/05/01 03:29:26;;;;;;;13.40;5.40;;;3.00;1.00;;;4.28;74.24;99970.16;5019064;28;130273;-66
2022/05/01 03:31:55;;;;;;;11.18;6.43;;;3.10;1.00;;;4.39;74.06;99981.78;5003042;28;129035;-67
2022/05/01 03:34:23;;;;;;;11.20;6.75;;;3.10;1.00;;;4.49;74.12;99975.69;5018997;28;120958;-67
2022/05/01 03:36:53;;;;;;;10.18;6.32;;;3.20;1.00;;;4.65;73.89;99980.09;5017928;28;122951;-66
2022/05/01 03:39:23;;;;;;;14.82;7.57;;;3.20;1.00;;;4.73;73.70;99976.09;4999950;28;129926;-66
2022/05/01 03:41:51;;;;;;;13.57;6.93;;;3.30;1.00;;;4.82;73.49;99963.78;5017799;28;130411;-68
2022/05/01 03:44:19;;;;;;;14.70;7.38;;;3.40;1.00;;;4.92;73.08;99973.75;5018587;28;120629;-65
2022/05/01 03:46:48;;;;;;;12.85;6.82;;;3.40;1.00;;;4.99;72.63;99970.84;5022488;28;118833;-69
2022/05/01 03:49:16;;;;;;;12.38;5.95;;;3.50;1.00;;;5.08;71.75;99971.97;5020025;28;130066;-66
2022/05/01 03:51:46;;;;;;;13.38;6.45;;;3.50;1.00;;;5.19;71.60;99975.50;5022884;28;129448;-66
2022/05/01 03:54:18;;;;;;;13.10;6.38;;;3.60;1.00;;;5.28;70.95;99976.59;5005625;28;102570;-67
2022/05/01 03:56:46;;;;;;;12.75;6.72;;;3.70;1.00;;;5.40;70.29;99971.78;5019796;28;120115;-66
2022/05/01 03:59:15;;;;;;;11.20;5.82;;;3.80;1.00;;;5.49;69.79;99971.28;5018521;28;130042;-67
2022/05/01 04:01:44;;;;;;;11.35;6.10;;;3.80;1.00;;;5.66;68.89;99973.75;5019486;28;129398;-65
2022/05/01 04:04:12;;;;;;;12.30;6.65;;;4.00;1.00;;;5.82;69.14;99966.47;5020156;28;120019;-65
2022/05/01 04:06:40;;;;;;;16.33;9.18;;;4.10;1.00;;;5.99;68.95;99969.75;5019964;28;120099;-65
2022/05/01 04:09:08;;;;;;;9.95;5.65;;;4.20;1.00;;;5.94;66.48;99967.81;4987496;28;129367;-65
2022/05/01 04:11:38;;;;;;;12.23;5.80;;;4.10;1.00;;;6.04;65.55;99971.63;5021702;28;128340;-66
2022/05/01 04:14:07;;;;;;;12.25;6.10;;;4.20;1.00;;;6.23;64.88;99969.19;5004208;28;119514;-66
2022/05/01 04:16:36;;;;;;;11.73;5.97;;;4.40;1.00;;;6.33;64.28;99963.81;5020000;28;119349;-66
2022/05/01 04:19:04;;;;;;;13.07;5.85;;;4.50;1.00;;;6.42;63.96;99967.56;5004453;28;129523;-66
2022/05/01 04:21:32;;;;;;;10.65;5.43;;;4.50;1.00;;;6.36;63.39;99968.66;5018859;28;129351;-66
2022/05/01 04:24:01;;;;;;;13.52;5.65;;;4.40;1.00;;;6.40;63.34;99975.09;5018034;27;122165;-64
2022/05/01 04:26:29;;;;;;;10.02;5.72;;;4.50;1.00;;;6.47;63.12;99970.25;5001493;28;121874;-68
2022/05/01 04:31:44;;;;;;;11.05;4.95;;;4.60;1.00;;;6.82;61.60;99965.84;5018908;28;129843;-67
2022/05/01 04:34:13;;;;;;;14.15;4.95;;;4.80;1.00;;;6.96;60.50;99967.94;5019029;28;119878;-68
2022/05/01 04:36:42;;;;;;;9.80;5.00;;;4.90;1.00;;;7.12;59.65;99969.53;5019221;28;119954;-65
2022/05/01 04:39:10;;;;;;;8.05;4.63;;;5.10;1.00;;;6.77;58.75;99971.25;5018814;28;129681;-64
2022/05/01 04:41:38;;;;;;;9.32;5.00;;;5.00;1.00;;;6.68;58.87;99969.41;5019362;28;130250;-68
2022/05/01 04:44:08;;;;;;;8.77;4.22;;;5.10;1.00;;;6.96;58.15;99976.03;5004402;28;119260;-67
2022/05/01 04:46:37;;;;;;;7.57;4.20;;;5.10;1.00;;;7.28;57.25;99977.56;5021265;28;120200;-65
2022/05/01 04:49:05;;;;;;;8.15;4.03;;;5.30;1.00;;;7.38;57.08;99983.69;5017518;28;130177;-66
2022/05/01 04:51:34;;;;;;;11.80;4.78;;;5.40;1.00;;;6.92;57.67;99975.81;5018778;28;130470;-66
2022/05/01 04:54:03;;;;;;;8.80;4.50;;;5.30;1.00;;;7.11;57.63;99984.09;5019614;28;119938;-67
2022/05/01 04:59:19;;;;;;;9.82;4.50;;;5.30;1.00;;;6.71;58.03;99990.44;5003604;28;129993;-67
2022/05/01 05:01:48;;;;;;;9.85;4.95;;;5.30;1.00;;;7.28;57.84;99986.44;5018608;28;130197;-69
2022/05/01 05:04:16;;;;;;;10.20;5.07;;;5.50;1.00;;;7.78;56.24;99975.63;5018870;28;119685;-68
2022/05/01 05:06:45;;;;;;;10.38;5.10;;;5.80;1.00;;;7.54;56.59;99975.50;4988025;28;118365;-67
2022/05/01 05:12:03;;;;;;;8.48;4.25;;;5.90;1.00;;;7.89;55.04;99981.75;5003781;28;128717;-65
2022/05/01 05:14:33;;;;;;;8.57;4.15;;;5.90;1.00;;;8.18;54.81;99978.28;5017671;28;122328;-69
2022/05/01 05:17:06;;;;;;;10.77;4.30;;;6.10;1.00;;;8.11;54.67;99973.22;5000867;28;121857;-68
2022/05/01 05:19:35;;;;;;;10.57;4.47;;;6.10;1.00;;;8.28;54.87;99979.00;5018532;28;130579;-70
2022/05/01 05:22:04;;;;;;;7.38;3.88;;;6.20;1.00;;;8.69;53.80;99985.13;5018220;28;130235;-69
2022/05/01 05:24:33;;;;;;;10.57;4.03;;;6.50;1.00;;;9.25;51.98;99978.25;4997587;28;118674;-69
2022/05/01 05:27:01;;;;;;;11.38;5.18;;;6.60;1.00;;;9.30;52.04;99984.44;5015154;28;119749;-67
2022/05/01 05:29:30;;;;;;;14.75;7.00;;;6.90;1.00;;;9.95;50.76;99985.66;5017828;28;131101;-67
2022/05/01 05:32:00;;;;;;;15.13;7.60;;;7.20;1.00;;;10.54;49.15;99982.53;5018632;28;129720;-67
2022/05/01 05:34:28;;;;;;;32.60;17.17;;;7.50;1.00;;;10.79;48.53;99982.06;5018559;28;119858;-66
2022/05/01 05:36:56;;;;;;;17.65;10.07;;;7.90;1.00;;;10.63;48.48;99972.59;5016927;27;119476;-71
2022/05/01 05:39:25;;;;;;;19.00;9.02;;;8.00;1.00;;;11.19;47.39;99983.44;5016453;28;130348;-66
2022/05/01 05:41:55;;;;;;;11.32;6.38;;;8.20;1.00;;;11.68;47.08;99979.91;5017956;28;129446;-68
2022/05/01 05:44:23;;;;;;;18.95;8.35;;;8.60;1.00;;;11.71;46.13;99975.00;5018144;28;119968;-69
2022/05/01 05:46:52;;;;;;;13.75;8.02;;;8.70;1.00;;;11.53;45.81;99969.41;5034898;27;119825;-68
2022/05/01 05:49:22;;;;;;;13.95;6.68;;;8.70;1.00;;;11.38;45.91;99970.56;5058198;27;130455;-68
2022/05/01 05:51:50;;;;;;;10.77;4.93;;;8.70;1.00;;;11.12;46.44;99973.78;5058260;27;130421;-66
2022/05/01 05:54:18;;;;;;;11.57;5.10;;;8.60;1.00;;;11.20;46.75;99968.75;5058196;27;120996;-68
2022/05/01 05:56:47;;;;;;;11.52;5.40;;;8.50;1.00;;;11.63;45.75;99965.66;5046680;27;119584;-72
2022/05/01 05:59:16;;;;;;;9.98;5.05;;;8.70;1.00;;;11.45;45.91;99970.94;5019708;27;129543;-66
2022/05/01 06:01:44;;;;;;;11.23;5.75;;;8.80;1.00;;;11.64;46.32;99968.06;5036445;27;130225;-74
2022/05/01 06:04:13;;;;;;;11.15;5.72;;;9.00;1.00;;;11.58;45.90;99973.94;5036854;27;122700;-73
2022/05/01 06:06:42;;;;;;;7.15;4.13;;;9.00;1.00;;;11.76;44.70;99970.22;5023463;27;121326;-76
2022/05/01 06:09:11;;;;;;;6.95;4.03;;;9.10;1.00;;;12.09;43.79;99972.75;5020881;27;129429;-78
2022/05/01 06:11:39;;;;;;;7.95;4.00;;;9.40;1.00;;;11.88;43.96;99975.94;5036748;27;129373;-75
2022/05/01 06:14:08;;;;;;;9.50;4.32;;;9.40;1.00;;;11.46;45.65;99972.53;5038205;27;119710;-74
2022/05/01 06:16:37;;;;;;;7.88;3.83;;;9.30;1.00;;;11.72;44.41;99971.97;5022383;27;120088;-70
2022/05/01 06:19:07;;;;;;;7.78;4.03;;;9.40;1.00;;;12.41;43.64;99962.69;5027312;27;131150;-71
2022/05/01 06:21:35;;;;;;;7.13;3.95;;;9.70;1.00;;;12.63;43.66;99964.56;5036523;27;129769;-69
2022/05/01 06:24:07;;;;;;;6.35;3.67;;;9.90;1.00;;;13.08;42.30;99958.94;5037176;27;119966;-69
2022/05/01 06:26:35;;;;;;;7.38;3.78;;;10.20;1.00;;;13.42;41.67;99956.63;5037964;27;120081;-70
2022/05/01 06:29:04;;;;;;;6.55;3.25;;;10.60;1.00;;;13.65;40.01;99955.38;5036154;27;130471;-71
2022/05/01 06:31:33;;;;;;;6.35;3.08;;;10.80;1.00;;;12.71;40.13;99960.28;5033280;27;129256;-69
2022/05/01 06:34:02;;;;;;;6.03;3.13;;;10.60;1.00;;;12.64;40.80;99959.94;4984627;28;119342;-74
2022/05/01 06:36:30;;;;;;;6.13;2.97;;;10.40;1.00;;;13.39;39.76;99949.88;5002328;28;118883;-68
2022/05/01 06:39:00;;;;;;;7.07;3.20;;;10.60;1.00;;;13.59;38.93;99956.66;5017062;28;130216;-69
2022/05/01 06:41:30;;;;;;;8.27;3.38;;;10.80;1.00;;;13.05;41.73;99954.13;5015677;28;129617;-67
2022/05/01 06:43:58;;;;;;;6.60;3.33;;;10.70;1.00;;;13.16;40.67;99959.28;5017332;28;119875;-68
2022/05/01 06:46:27;;;;;;;6.68;2.95;;;10.80;1.00;;;13.04;41.54;99962.63;5017775;28;119708;-70
2022/05/01 06:48:55;;;;;;;8.00;2.97;;;10.70;1.00;;;13.25;40.27;99962.84;5020391;28;129939;-69
2022/05/01 06:51:23;;;;;;;5.72;2.92;;;10.80;1.00;;;12.48;41.36;99965.78;5025787;27;129736;-67
2022/05/01 06:53:52;;;;;;;6.05;2.40;;;10.70;1.00;;;13.45;38.86;99956.00;5015115;27;120783;-70
2022/05/01 06:56:21;;;;;;;7.30;3.13;;;11.00;1.00;;;13.87;38.54;99960.97;5019447;27;120638;-71
2022/05/01 06:58:50;;;;;;;6.53;2.58;;;11.20;1.00;;;14.05;38.04;99956.28;5039676;27;130802;-71
2022/05/01 07:01:19;;;;;;;5.32;1.50;;;11.30;1.00;;;13.27;36.75;99961.38;5038574;27;129610;-68
2022/05/01 07:03:49;;;;;;;3.83;1.92;;;11.20;1.00;;;13.75;35.76;99958.91;5024863;27;119293;-69
2022/05/01 07:06:18;;;;;;;4.43;1.85;;;11.40;1.00;;;13.77;35.90;99953.91;5037619;27;119414;-69
2022/05/01 07:08:46;;;;;;;4.90;2.00;;;11.40;1.00;;;13.76;35.82;99971.38;5037046;27;130538;-70
2022/05/01 07:11:14;;;;;;;5.10;2.38;;;11.40;1.00;;;13.99;35.72;99963.84;5023619;27;130023;-69
2022/05/01 07:13:43;;;;;;;4.65;2.28;;;11.60;1.00;;;13.37;35.97;99970.41;5017524;27;119862;-68
2022/05/01 07:16:13;;;;;;;5.55;2.05;;;11.30;1.00;;;13.34;36.06;99969.13;5040427;27;119553;-67
2022/05/01 07:18:43;;;;;;;4.40;2.10;;;11.30;1.00;;;13.36;35.60;99957.91;5016450;27;129719;-70
2022/05/01 07:21:12;;;;;;;3.78;1.48;;;11.30;1.00;;;13.26;35.10;99959.78;5039321;27;130360;-70
2022/05/01 07:23:41;;;;;;;5.68;2.28;;;11.20;1.00;;;13.45;36.23;99966.91;5007029;28;120946;-69
2022/05/01 07:26:09;;;;;;;5.32;2.00;;;11.20;1.00;;;13.28;36.47;99957.53;5030533;27;119782;-67
2022/05/01 07:28:39;;;;;;;5.10;2.20;;;11.30;1.00;;;13.91;35.93;99957.25;5025103;27;130199;-69
2022/05/01 07:31:08;;;;;;;4.00;2.05;;;11.50;1.00;;;14.25;34.01;99957.53;5021309;27;130676;-67
2022/05/01 07:33:38;;;;;;;6.60;2.00;;;11.90;1.00;;;13.59;33.69;99959.38;5019549;28;119401;-69
2022/05/01 07:36:07;;;;;;;6.35;1.95;;;11.50;1.00;;;14.56;33.45;99957.28;5022761;27;119379;-67
2022/05/01 07:38:35;;;;;;;5.97;2.20;;;11.90;1.00;;;14.85;33.03;99962.03;5021887;27;129761;-67
2022/05/01 07:41:03;;;;;;;10.25;2.33;;;12.00;1.00;;;15.07;32.95;99958.19;5031504;27;129550;-67
2022/05/01 07:43:32;;;;;;;4.53;1.90;;;11.80;1.00;;;15.47;31.46;99951.50;5036919;27;121900;-69
2022/05/01 07:46:01;;;;;;;5.50;1.90;;;12.10;1.00;;;15.49;32.31;99960.19;5022664;27;122916;-68
2022/05/01 07:48:30;;;;;;;3.55;1.50;;;12.50;1.00;;;15.53;30.49;99952.13;5001442;28;129994;-68
2022/05/01 07:51:00;;;;;;;3.95;1.90;;;12.10;1.00;;;15.65;31.28;99957.66;5019915;28;129351;-68
2022/05/01 07:53:28;;;;;;;4.65;1.83;;;12.00;1.00;;;15.15;32.31;99953.03;5019783;28;119889;-68
2022/05/01 07:55:57;;;;;;;4.15;1.90;;;12.30;1.00;;;15.26;32.39;99941.34;5016785;28;119472;-73
2022/05/01 07:58:27;;;;;;;5.63;1.65;;;12.50;1.00;;;14.90;32.00;99942.69;5017403;28;130334;-69
2022/05/01 08:00:58;;;;;;;5.65;1.88;;;12.30;1.00;;;15.10;31.14;99949.34;5004824;28;129468;-69
2022/05/01 08:06:12;;;;;;;4.88;2.28;;;11.80;1.00;;;15.00;32.42;99946.97;4962101;28;119467;-69
2022/05/01 08:08:41;;;;;;;4.78;2.08;;;12.10;1.00;;;15.63;31.46;99946.25;4997831;28;129666;-69
2022/05/01 08:11:12;;;;;;;7.22;1.90;;;12.50;1.00;;;15.88;29.94;99943.63;4998129;28;129907;-72
2022/05/01 08:13:41;;;;;;;4.75;1.95;;;12.40;1.00;;;15.62;30.74;99939.16;4999832;28;120022;-71
2022/05/01 08:16:10;;;;;;;4.63;1.80;;;12.00;1.00;;;15.49;30.04;99951.16;5019788;28;118844;-70
2022/05/01 08:21:25;;;;;;;4.57;2.17;;;12.50;1.00;;;16.22;30.08;99947.97;4989228;27;129486;-70
2022/05/01 08:23:54;;;;;;;3.70;2.00;;;12.90;1.00;;;16.41;29.82;99946.63;4999041;28;120110;-69
2022/05/01 08:26:23;;;;;;;4.82;2.20;;;13.20;1.00;;;16.49;29.10;99938.31;4986192;28;118171;-69
2022/05/01 08:28:54;;;;;;;4.65;1.92;;;13.10;1.00;;;16.72;29.54;99929.69;5019149;28;130066;-68
2022/05/01 08:31:23;;;;;;;4.43;1.80;;;13.40;1.00;;;16.23;28.42;99935.88;5017056;28;129519;-68
2022/05/01 08:33:51;;;;;;;3.97;2.03;;;12.90;1.00;;;16.34;28.51;99928.03;5016903;28;122286;-72
2022/05/01 08:36:20;;;;;;;3.53;1.90;;;12.60;1.00;;;16.29;28.67;99939.19;5018937;28;122106;-71
2022/05/01 08:38:49;;;;;;;5.45;2.30;;;12.60;1.00;;;15.89;29.04;99937.03;5018961;28;129792;-70
2022/05/01 08:41:19;;;;;;;7.18;2.10;;;12.30;1.00;;;15.95;28.74;99932.94;5020696;28;128617;-68
2022/05/01 08:43:48;;;;;;;5.68;2.30;;;12.40;1.00;;;14.70;29.93;99933.31;5019170;28;120273;-72
2022/05/01 08:46:30;;;;;;;5.07;2.00;;;12.40;1.00;;;15.25;29.50;99928.84;5029798;27;119571;-71
2022/05/01 08:49:04;;;;;;;4.57;2.15;;;12.40;1.00;;;15.96;28.80;99931.81;5037299;27;130791;-71
2022/05/01 08:51:35;;;;;;;5.22;2.65;;;12.60;1.00;;;16.68;29.04;99923.28;5019308;28;129363;-68
2022/05/01 08:54:08;;;;;;;22.25;13.85;;;13.40;1.00;;;17.36;29.51;99921.88;5019513;28;119765;-68
2022/05/01 08:56:38;;;;;;;8.30;4.18;;;14.20;1.00;;;17.91;28.21;99916.78;5018723;28;120256;-70
2022/05/01 08:59:09;;;;;;;4.88;2.50;;;14.70;1.00;;;17.53;27.39;99918.84;5016098;28;129854;-68
2022/05/01 09:01:39;;;;;;;9.02;3.10;;;14.50;1.00;;;18.00;28.13;99909.16;5018578;28;129688;-69
2022/05/01 09:04:09;;;;;;;4.93;2.38;;;14.70;1.00;;;17.94;26.15;99905.88;5004637;28;119102;-68
2022/05/01 09:06:38;;;;;;;9.77;3.70;;;14.10;1.00;;;17.91;26.59;99906.56;5019301;28;120457;-68
2022/05/01 09:09:10;;;;;;;5.88;2.22;;;14.00;1.00;;;18.11;26.45;99903.97;5033763;27;130695;-69
2022/05/01 09:14:27;;;;;;;;;;;14.90;1.00;;;17.99;28.22;99906.78;5039316;27;119719;-67
2022/05/01 09:17:17;;;;;;;6.72;2.38;;;14.90;1.00;;;18.27;27.00;99896.50;5021447;27;119150;-68
2022/05/01 09:19:48;;;;;;;4.03;2.08;;;15.00;1.00;;;18.18;27.02;99903.34;5038283;27;130847;-67
2022/05/01 09:22:17;;;;;;;3.42;1.90;;;14.90;1.00;;;17.85;26.83;99896.97;5037135;27;129365;-69
2022/05/01 09:24:52;;;;;;;6.35;2.40;;;14.20;1.00;;;17.28;27.36;99900.84;5037217;27;122307;-67
2022/05/01 09:27:27;;;;;;;9.40;5.27;;;13.80;1.00;;;16.92;28.96;99895.06;5040175;27;122407;-67
2022/05/01 09:30:12;;;;;;;7.80;2.50;;;13.60;1.00;;;16.28;28.66;99899.25;5058789;27;130050;-68
2022/05/01 09:32:42;;;;;;;6.05;2.42;;;13.20;1.00;;;16.28;28.76;99899.25;5059342;27;129848;-69
2022/05/01 09:35:16;;;;;;;5.82;2.60;;;13.30;1.00;;;16.25;30.64;99894.47;5057684;27;120312;-70
2022/05/01 09:37:45;;;;;;;4.25;2.10;;;13.60;1.00;;;16.30;29.34;99897.00;5058684;27;119381;-68
2022/05/01 09:40:31;;;;;;;4.32;2.10;;;13.40;1.00;;;16.23;29.62;99896.75;5043688;27;129020;-69
2022/05/01 09:43:00;;;;;;;6.73;2.00;;;13.30;1.00;;;16.26;29.30;99901.53;5040629;27;129681;-69
2022/05/01 09:45:32;;;;;;;6.05;2.20;;;13.40;1.00;;;16.41;29.62;99892.66;5040429;27;119767;-68
2022/05/01 09:48:01;;;;;;;5.80;2.50;;;13.50;1.00;;;16.04;29.86;99895.34;5039924;27;119336;-69
2022/05/01 09:50:42;;;;;;;7.30;2.70;;;13.40;1.00;;;16.49;31.77;99889.00;5025063;27;130467;-68
2022/05/01 09:53:13;;;;;;;5.07;2.58;;;13.80;1.00;;;16.95;31.38;99882.63;5017824;28;129686;-68
2022/05/01 09:55:42;;;;;;;4.65;2.33;;;14.20;1.00;;;17.27;30.82;99885.53;5000262;28;119776;-66
2022/05/01 09:58:14;;;;;;;5.82;2.30;;;14.50;1.00;;;17.40;28.68;99887.09;5016444;28;120018;-69
2022/05/01 10:00:46;;;;;;;8.63;2.22;;;14.60;1.00;;;17.22;28.75;99873.66;5017663;28;130393;-69
2022/05/01 10:03:23;;;;;;;6.07;2.60;;;14.50;1.00;;;17.04;28.03;99864.91;5017461;28;129838;-69
2022/05/01 10:05:53;;;;;;;4.95;2.50;;;14.20;1.00;;;16.86;29.44;99874.50;5018358;28;119912;-67
2022/05/01 10:08:23;;;;;;;5.68;2.90;;;13.90;1.00;;;16.46;29.81;99870.53;4986626;28;118859;-67
2022/05/01 10:10:57;;;;;;;4.85;2.30;;;13.50;1.00;;;16.21;30.42;99866.19;5015153;27;129363;-73
2022/05/01 10:13:27;;;;;;;3.90;2.13;;;13.30;1.00;;;16.28;28.86;99877.34;5037442;27;129778;-68
2022/05/01 10:15:56;;;;;;;4.55;2.28;;;13.50;1.00;;;16.26;29.64;99874.16;5036651;27;122225;-68
2022/05/01 10:18:25;;;;;;;6.65;2.75;;;13.80;1.00;;;16.39;29.37;99862.06;5038905;27;121295;-70
2022/05/01 10:20:54;;;;;;;4.88;2.55;;;13.80;1.00;;;16.65;29.55;99863.66;5036561;27;130805;-70
2022/05/01 10:23:23;;;;;;;6.30;2.97;;;14.00;1.00;;;16.89;28.78;99866.41;5035750;27;129789;-70
2022/05/01 10:26:02;;;;;;;7.68;2.78;;;14.20;1.00;;;16.96;28.81;99859.56;5038210;27;120369;-67
2022/05/01 10:28:53;;;;;;;5.57;3.17;;;14.20;1.00;;;17.17;30.88;99857.47;5038092;27;120351;-67
2022/05/01 10:35:18;;;;;;;3.05;1.77;;;14.90;1.00;;;17.12;28.08;99860.41;5026687;27;129815;-70
2022/05/01 10:38:21;;;;;;;4.47;2.08;;;14.40;1.00;;;16.80;28.48;99854.75;4966380;28;119105;-67
2022/05/01 10:40:54;;;;;;;4.85;2.17;;;14.30;1.00;;;16.94;28.02;99850.88;5017350;28;120115;-70
2022/05/01 10:43:29;;;;;;;4.72;2.20;;;14.00;1.00;;;16.68;28.78;99854.75;5015888;28;129719;-67
2022/05/01 10:46:00;;;;;;;3.83;2.10;;;13.90;1.00;;;16.65;28.89;99847.22;4998903;28;129671;-70
2022/05/01 10:48:41;;;;;;;4.68;2.05;;;13.70;1.00;;;16.88;29.79;99839.34;5017314;28;119955;-69
2022/05/01 10:51:52;;;;;;;4.78;2.00;;;14.20;1.00;;;17.22;28.30;99843.50;5002462;28;118455;-68
2022/05/01 10:54:40;;;;;;;4.50;2.38;;;14.70;1.00;;;17.27;28.30;99830.69;4985288;28;129283;-72
2022/05/01 10:57:13;;;;;;;4.45;2.15;;;14.70;1.00;;;17.41;28.19;99828.34;5016366;28;129921;-69
2022/05/01 10:59:47;;;;;;;6.50;2.42;;;14.90;1.00;;;17.39;29.87;99825.94;5016107;28;120850;-69
2022/05/01 11:02:29;;;;;;;5.90;2.33;;;14.80;1.00;;;17.68;28.54;99831.41;5017407;28;119756;-69
2022/05/01 11:04:59;;;;;;;8.40;4.65;;;15.10;1.00;;;17.70;27.58;99826.34;5016745;28;130504;-68
2022/05/01 11:07:29;;;;;;;22.23;12.18;;;15.00;1.00;;;17.67;28.79;99813.34;5016651;28;130156;-69